LGL425 ELLX-LGIR
Flight info
| Callsign | LGL425 |
|---|---|
| Flight time | 2h 43m |
| Altitude | 33000 |
| Route | GTQ DCT BEGAR DCT TRA/N0455F350 DCT SUXAN DCT ROSKA DCT ROTAR DCT VAKSU/N0454F370 DCT KOFER DCT UNDER DCT NURSO DCT PINDO UL607 GIVIS UT514 XAVIS |
| Aircraft | B738/M-SDE2E3FGHIRWXY/LB1 |
Departure
| Time | 2026-04-27 13:09 |
|---|---|
| Airport | Luxembourg-Findel International Airport (ELLX) |
Arrival
| Time | 2026-04-27 15:52 |
|---|---|
| Airport | Heraklion International Nikos Kazantzakis Airport (LGIR) |
| Time | Latitude | Longitude | Altitude | Speed | Heading |
|---|---|---|---|---|---|
| 2026-04-27 12:42 | 49.63331 | 6.21557 | 1229 ft | 0 kts | 330° |
| 2026-04-27 12:58 | 49.63321 | 6.21566 | 1229 ft | 4 kts | 330° |
| 2026-04-27 12:58 | 49.63298 | 6.21587 | 1229 ft | 4 kts | 330° |
| 2026-04-27 12:58 | 49.63276 | 6.21610 | 1229 ft | 4 kts | 307° |
| 2026-04-27 12:58 | 49.63269 | 6.21643 | 1229 ft | 4 kts | 253° |
| 2026-04-27 12:59 | 49.63277 | 6.21671 | 1229 ft | 4 kts | 240° |
| 2026-04-27 12:59 | 49.63282 | 6.21684 | 1229 ft | 0 kts | 240° |
| 2026-04-27 13:02 | 49.63279 | 6.21679 | 1229 ft | 1 kts | 224° |
| 2026-04-27 13:02 | 49.63254 | 6.21678 | 1229 ft | 6 kts | 159° |
| 2026-04-27 13:02 | 49.63202 | 6.21719 | 1228 ft | 11 kts | 147° |
| 2026-04-27 13:02 | 49.63134 | 6.21772 | 1226 ft | 8 kts | 173° |
| 2026-04-27 13:03 | 49.63104 | 6.21742 | 1224 ft | 5 kts | 249° |
| 2026-04-27 13:03 | 49.63085 | 6.21674 | 1224 ft | 9 kts | 245° |
| 2026-04-27 13:03 | 49.63052 | 6.21565 | 1225 ft | 13 kts | 243° |
| 2026-04-27 13:03 | 49.63007 | 6.21424 | 1227 ft | 16 kts | 244° |
| 2026-04-27 13:04 | 49.62958 | 6.21262 | 1231 ft | 16 kts | 245° |
| 2026-04-27 13:04 | 49.62911 | 6.21104 | 1232 ft | 16 kts | 244° |
| 2026-04-27 13:04 | 49.62864 | 6.20956 | 1233 ft | 15 kts | 243° |
| 2026-04-27 13:04 | 49.62818 | 6.20812 | 1238 ft | 15 kts | 244° |
| 2026-04-27 13:05 | 49.62756 | 6.20693 | 1238 ft | 14 kts | 221° |
| 2026-04-27 13:05 | 49.62680 | 6.20603 | 1241 ft | 13 kts | 219° |
| 2026-04-27 13:05 | 49.62615 | 6.20498 | 1236 ft | 15 kts | 230° |
| 2026-04-27 13:05 | 49.62532 | 6.20351 | 1230 ft | 20 kts | 229° |
| 2026-04-27 13:06 | 49.62447 | 6.20151 | 1218 ft | 24 kts | 240° |
| 2026-04-27 13:06 | 49.62355 | 6.19905 | 1204 ft | 28 kts | 241° |
| 2026-04-27 13:06 | 49.62252 | 6.19626 | 1188 ft | 31 kts | 240° |
| 2026-04-27 13:06 | 49.62143 | 6.19330 | 1172 ft | 29 kts | 240° |
| 2026-04-27 13:07 | 49.62043 | 6.19063 | 1163 ft | 29 kts | 240° |
| 2026-04-27 13:07 | 49.61948 | 6.18819 | 1156 ft | 24 kts | 230° |
| 2026-04-27 13:07 | 49.61848 | 6.18707 | 1157 ft | 17 kts | 194° |
| 2026-04-27 13:07 | 49.61777 | 6.18809 | 1160 ft | 14 kts | 72° |
| 2026-04-27 13:08 | 49.61811 | 6.18908 | 1162 ft | 8 kts | 61° |
| 2026-04-27 13:08 | 49.61935 | 6.19243 | 1169 ft | 76 kts | 60° |
| 2026-04-27 13:08 | 49.62322 | 6.20283 | 1224 ft | 145 kts | 60° |
| 2026-04-27 13:08 | 49.62908 | 6.21862 | 1571 ft | 184 kts | 60° |
| 2026-04-27 13:09 | 49.63532 | 6.23528 | 2928 ft | 173 kts | 60° |
| 2026-04-27 13:09 | 49.63884 | 6.25352 | 3770 ft | 195 kts | 96° |
| 2026-04-27 13:09 | 49.63246 | 6.27300 | 4111 ft | 218 kts | 132° |
| 2026-04-27 13:09 | 49.62085 | 6.28964 | 4394 ft | 240 kts | 146° |
| 2026-04-27 13:10 | 49.60575 | 6.30179 | 5026 ft | 248 kts | 155° |
| 2026-04-27 13:10 | 49.58912 | 6.31268 | 5476 ft | 268 kts | 158° |
| 2026-04-27 13:10 | 49.57182 | 6.32368 | 6320 ft | 275 kts | 159° |
| 2026-04-27 13:10 | 49.55404 | 6.33505 | 7257 ft | 279 kts | 158° |
| 2026-04-27 13:11 | 49.53605 | 6.34673 | 8220 ft | 281 kts | 158° |
| 2026-04-27 13:11 | 49.51784 | 6.35866 | 9097 ft | 286 kts | 159° |
| 2026-04-27 13:11 | 49.49943 | 6.37069 | 9946 ft | 289 kts | 158° |
| 2026-04-27 13:11 | 49.48075 | 6.38324 | 10663 ft | 298 kts | 158° |
| 2026-04-27 13:12 | 49.46111 | 6.39650 | 10879 ft | 325 kts | 157° |
| 2026-04-27 13:12 | 49.43965 | 6.41108 | 11114 ft | 348 kts | 158° |
| 2026-04-27 13:12 | 49.41682 | 6.42656 | 11460 ft | 365 kts | 158° |
| 2026-04-27 13:12 | 49.39322 | 6.44258 | 12100 ft | 373 kts | 158° |
| 2026-04-27 13:13 | 49.36932 | 6.45874 | 12800 ft | 377 kts | 158° |
| 2026-04-27 13:13 | 49.34543 | 6.47490 | 13551 ft | 381 kts | 158° |
| 2026-04-27 13:13 | 49.32091 | 6.49149 | 14221 ft | 387 kts | 158° |
| 2026-04-27 13:13 | 49.29613 | 6.50823 | 14843 ft | 391 kts | 158° |
| 2026-04-27 13:14 | 49.27103 | 6.52514 | 15488 ft | 395 kts | 158° |
| 2026-04-27 13:14 | 49.24568 | 6.54220 | 16097 ft | 399 kts | 158° |
| 2026-04-27 13:14 | 49.22039 | 6.55923 | 16696 ft | 404 kts | 158° |
| 2026-04-27 13:14 | 49.19447 | 6.57662 | 17336 ft | 408 kts | 158° |
| 2026-04-27 13:15 | 49.16821 | 6.59420 | 17920 ft | 414 kts | 158° |
| 2026-04-27 13:15 | 49.14166 | 6.61200 | 18475 ft | 419 kts | 158° |
| 2026-04-27 13:15 | 49.11481 | 6.63000 | 18985 ft | 422 kts | 159° |
| 2026-04-27 13:15 | 49.08779 | 6.64809 | 19563 ft | 424 kts | 159° |
| 2026-04-27 13:16 | 49.06068 | 6.66621 | 20103 ft | 427 kts | 159° |
| 2026-04-27 13:16 | 49.03324 | 6.68453 | 20607 ft | 431 kts | 159° |
| 2026-04-27 13:16 | 49.00563 | 6.70291 | 21112 ft | 434 kts | 159° |
| 2026-04-27 13:16 | 48.97830 | 6.72162 | 21606 ft | 437 kts | 156° |
| 2026-04-27 13:17 | 48.95101 | 6.74275 | 22093 ft | 441 kts | 154° |
| 2026-04-27 13:17 | 48.92381 | 6.76514 | 22569 ft | 445 kts | 154° |
| 2026-04-27 13:17 | 48.89652 | 6.78807 | 23026 ft | 448 kts | 153° |
| 2026-04-27 13:17 | 48.86952 | 6.81076 | 23469 ft | 451 kts | 154° |
| 2026-04-27 13:18 | 48.84185 | 6.83386 | 23907 ft | 454 kts | 154° |
| 2026-04-27 13:18 | 48.81406 | 6.85688 | 24292 ft | 456 kts | 154° |
| 2026-04-27 13:18 | 48.78601 | 6.87993 | 24674 ft | 458 kts | 154° |
| 2026-04-27 13:18 | 48.75778 | 6.90302 | 25040 ft | 461 kts | 154° |
| 2026-04-27 13:19 | 48.72979 | 6.92583 | 25381 ft | 463 kts | 154° |
| 2026-04-27 13:19 | 48.70132 | 6.94900 | 25736 ft | 466 kts | 155° |
| 2026-04-27 13:19 | 48.67267 | 6.97226 | 26089 ft | 468 kts | 155° |
| 2026-04-27 13:19 | 48.64387 | 6.99562 | 26435 ft | 470 kts | 155° |
| 2026-04-27 13:20 | 48.61496 | 7.01906 | 26752 ft | 473 kts | 155° |
| 2026-04-27 13:20 | 48.58590 | 7.04259 | 27067 ft | 475 kts | 155° |
| 2026-04-27 13:20 | 48.55659 | 7.06629 | 27386 ft | 478 kts | 155° |
| 2026-04-27 13:20 | 48.52721 | 7.09002 | 27698 ft | 480 kts | 155° |
| 2026-04-27 13:21 | 48.49763 | 7.11388 | 28010 ft | 482 kts | 155° |
| 2026-04-27 13:21 | 48.46837 | 7.13745 | 28296 ft | 484 kts | 155° |
| 2026-04-27 13:21 | 48.43858 | 7.16141 | 28586 ft | 486 kts | 155° |
| 2026-04-27 13:21 | 48.40871 | 7.18541 | 28932 ft | 486 kts | 155° |
| 2026-04-27 13:22 | 48.37879 | 7.20942 | 29366 ft | 484 kts | 155° |
| 2026-04-27 13:22 | 48.34911 | 7.23322 | 29833 ft | 483 kts | 155° |
| 2026-04-27 13:22 | 48.31950 | 7.25692 | 30232 ft | 482 kts | 155° |
| 2026-04-27 13:22 | 48.28984 | 7.28062 | 30529 ft | 482 kts | 155° |
| 2026-04-27 13:23 | 48.26060 | 7.30394 | 30819 ft | 482 kts | 155° |
| 2026-04-27 13:23 | 48.23083 | 7.32766 | 31115 ft | 482 kts | 155° |
| 2026-04-27 13:23 | 48.20118 | 7.35126 | 31441 ft | 481 kts | 155° |
| 2026-04-27 13:23 | 48.17153 | 7.37484 | 31765 ft | 481 kts | 155° |
| 2026-04-27 13:24 | 48.14198 | 7.39830 | 32066 ft | 481 kts | 155° |
| 2026-04-27 13:24 | 48.11272 | 7.42149 | 32368 ft | 481 kts | 155° |
| 2026-04-27 13:24 | 48.08315 | 7.44491 | 32701 ft | 480 kts | 155° |
| 2026-04-27 13:24 | 48.05357 | 7.46830 | 33030 ft | 479 kts | 155° |
| 2026-04-27 13:25 | 48.02400 | 7.49166 | 33163 ft | 481 kts | 155° |
| 2026-04-27 13:25 | 47.99429 | 7.51510 | 33161 ft | 483 kts | 155° |
| 2026-04-27 13:25 | 47.93608 | 7.56425 | 33136 ft | 483 kts | 144° |
| 2026-04-27 13:26 | 47.91187 | 7.59899 | 33162 ft | 485 kts | 131° |
| 2026-04-27 13:26 | 47.89288 | 7.64049 | 33143 ft | 487 kts | 118° |
| 2026-04-27 13:26 | 47.86823 | 7.73478 | 33155 ft | 490 kts | 110° |
| 2026-04-27 13:27 | 47.84914 | 7.81432 | 33158 ft | 491 kts | 110° |
| 2026-04-27 13:27 | 47.82165 | 7.92506 | 33161 ft | 487 kts | 111° |
| 2026-04-27 13:28 | 47.79780 | 8.01870 | 33154 ft | 485 kts | 111° |
| 2026-04-27 13:28 | 47.77782 | 8.09663 | 33152 ft | 483 kts | 111° |
| 2026-04-27 13:29 | 47.75383 | 8.19001 | 33156 ft | 482 kts | 111° |
| 2026-04-27 13:29 | 47.72981 | 8.28327 | 33149 ft | 482 kts | 111° |
| 2026-04-27 13:30 | 47.70586 | 8.37590 | 33153 ft | 483 kts | 111° |
| 2026-04-27 13:30 | 47.67623 | 8.46531 | 33144 ft | 482 kts | 127° |
| 2026-04-27 13:31 | 47.63492 | 8.54299 | 33155 ft | 482 kts | 130° |
| 2026-04-27 13:31 | 47.59244 | 8.62042 | 33156 ft | 483 kts | 130° |
| 2026-04-27 13:32 | 47.55057 | 8.69757 | 33155 ft | 483 kts | 130° |
| 2026-04-27 13:32 | 47.50859 | 8.77547 | 33155 ft | 484 kts | 129° |
| 2026-04-27 13:33 | 47.46658 | 8.85343 | 33151 ft | 484 kts | 129° |
| 2026-04-27 13:33 | 47.42473 | 8.93086 | 33152 ft | 484 kts | 129° |
| 2026-04-27 13:34 | 47.38264 | 9.00845 | 33157 ft | 483 kts | 129° |
| 2026-04-27 13:34 | 47.34083 | 9.08531 | 33146 ft | 482 kts | 129° |
| 2026-04-27 13:35 | 47.29881 | 9.16233 | 33143 ft | 480 kts | 129° |
| 2026-04-27 13:35 | 47.25685 | 9.23903 | 33142 ft | 480 kts | 129° |
| 2026-04-27 13:36 | 47.21514 | 9.31505 | 33133 ft | 479 kts | 129° |
| 2026-04-27 13:36 | 47.17323 | 9.39123 | 33133 ft | 479 kts | 129° |
| 2026-04-27 13:37 | 47.13123 | 9.46737 | 33132 ft | 478 kts | 129° |
| 2026-04-27 13:37 | 47.08922 | 9.54331 | 33150 ft | 478 kts | 129° |
| 2026-04-27 13:38 | 47.04733 | 9.61882 | 33153 ft | 479 kts | 129° |
| 2026-04-27 13:38 | 47.00509 | 9.69475 | 33158 ft | 480 kts | 129° |
| 2026-04-27 13:39 | 46.96304 | 9.77014 | 33157 ft | 480 kts | 129° |
| 2026-04-27 13:39 | 46.92063 | 9.84596 | 33155 ft | 480 kts | 129° |
| 2026-04-27 13:40 | 46.87816 | 9.92168 | 33174 ft | 480 kts | 129° |
| 2026-04-27 13:40 | 46.83586 | 9.99689 | 33181 ft | 480 kts | 129° |
| 2026-04-27 13:41 | 46.79339 | 10.07220 | 33173 ft | 481 kts | 129° |
| 2026-04-27 13:41 | 46.75085 | 10.14744 | 33176 ft | 480 kts | 129° |
| 2026-04-27 13:42 | 46.70847 | 10.22215 | 33180 ft | 479 kts | 129° |
| 2026-04-27 13:42 | 46.66593 | 10.29698 | 33158 ft | 478 kts | 129° |
| 2026-04-27 13:43 | 46.62342 | 10.37156 | 33143 ft | 478 kts | 129° |
| 2026-04-27 13:43 | 46.58119 | 10.44547 | 33152 ft | 478 kts | 129° |
| 2026-04-27 13:44 | 46.53966 | 10.52110 | 33149 ft | 476 kts | 126° |
| 2026-04-27 13:44 | 46.50055 | 10.59913 | 33136 ft | 478 kts | 125° |
| 2026-04-27 13:45 | 46.46188 | 10.67706 | 33141 ft | 478 kts | 125° |
| 2026-04-27 13:45 | 46.42260 | 10.75527 | 33161 ft | 478 kts | 125° |
| 2026-04-27 13:46 | 46.38313 | 10.83314 | 33183 ft | 479 kts | 126° |
| 2026-04-27 13:46 | 46.34380 | 10.91037 | 33198 ft | 479 kts | 126° |
| 2026-04-27 13:47 | 46.30423 | 10.98788 | 33238 ft | 479 kts | 126° |
| 2026-04-27 13:47 | 46.26458 | 11.06536 | 33235 ft | 477 kts | 126° |
| 2026-04-27 13:48 | 46.22529 | 11.14193 | 33222 ft | 476 kts | 126° |
| 2026-04-27 13:48 | 46.18574 | 11.21880 | 33199 ft | 475 kts | 126° |
| 2026-04-27 13:49 | 46.14604 | 11.29575 | 33177 ft | 479 kts | 126° |
| 2026-04-27 13:49 | 46.10604 | 11.37308 | 33138 ft | 481 kts | 126° |
| 2026-04-27 13:50 | 46.06611 | 11.45004 | 33099 ft | 482 kts | 126° |
| 2026-04-27 13:50 | 46.02591 | 11.52731 | 33102 ft | 482 kts | 126° |
| 2026-04-27 13:51 | 45.98568 | 11.60444 | 33098 ft | 481 kts | 126° |
| 2026-04-27 13:51 | 45.94573 | 11.68081 | 33106 ft | 479 kts | 126° |
| 2026-04-27 13:52 | 45.90560 | 11.75732 | 33105 ft | 477 kts | 126° |
| 2026-04-27 13:52 | 45.86558 | 11.83342 | 33094 ft | 476 kts | 126° |
| 2026-04-27 13:53 | 45.80564 | 11.94702 | 33104 ft | 475 kts | 126° |
| 2026-04-27 13:54 | 45.76598 | 12.02193 | 33102 ft | 474 kts | 126° |
| 2026-04-27 13:54 | 45.72602 | 12.09721 | 33101 ft | 474 kts | 126° |
| 2026-04-27 13:55 | 45.68624 | 12.17193 | 33103 ft | 474 kts | 127° |
| 2026-04-27 13:55 | 45.64618 | 12.24701 | 33103 ft | 475 kts | 127° |
| 2026-04-27 13:56 | 45.60576 | 12.32254 | 33108 ft | 478 kts | 127° |
| 2026-04-27 13:56 | 45.56548 | 12.39761 | 33106 ft | 480 kts | 127° |
| 2026-04-27 13:57 | 45.52461 | 12.47359 | 33103 ft | 480 kts | 127° |
| 2026-04-27 13:57 | 45.48414 | 12.54863 | 33103 ft | 480 kts | 127° |
| 2026-04-27 13:58 | 45.44339 | 12.62398 | 33098 ft | 479 kts | 127° |
| 2026-04-27 13:58 | 45.40263 | 12.69916 | 33104 ft | 477 kts | 127° |
| 2026-04-27 13:59 | 45.36230 | 12.77337 | 33102 ft | 476 kts | 127° |
| 2026-04-27 13:59 | 45.32174 | 12.84784 | 33100 ft | 475 kts | 126° |
| 2026-04-27 14:00 | 45.28801 | 12.92827 | 33111 ft | 473 kts | 116° |
| 2026-04-27 14:00 | 45.25675 | 13.00984 | 33092 ft | 473 kts | 123° |
| 2026-04-27 14:01 | 45.21740 | 13.08488 | 33099 ft | 474 kts | 127° |
| 2026-04-27 14:01 | 45.17659 | 13.15898 | 33101 ft | 477 kts | 127° |
| 2026-04-27 14:02 | 45.13591 | 13.23349 | 33099 ft | 478 kts | 127° |
| 2026-04-27 14:02 | 45.09588 | 13.30755 | 33098 ft | 474 kts | 127° |
| 2026-04-27 14:03 | 45.05593 | 13.38164 | 33099 ft | 472 kts | 126° |
| 2026-04-27 14:03 | 45.01578 | 13.45597 | 33104 ft | 476 kts | 127° |
| 2026-04-27 14:04 | 44.97570 | 13.52991 | 33097 ft | 475 kts | 127° |
| 2026-04-27 14:04 | 44.93547 | 13.60391 | 33098 ft | 473 kts | 127° |
| 2026-04-27 14:05 | 44.89566 | 13.67693 | 33108 ft | 474 kts | 127° |
| 2026-04-27 14:05 | 44.85519 | 13.75099 | 33109 ft | 477 kts | 127° |
| 2026-04-27 14:06 | 44.81453 | 13.82521 | 33105 ft | 478 kts | 127° |
| 2026-04-27 14:06 | 44.77378 | 13.89939 | 33101 ft | 479 kts | 127° |
| 2026-04-27 14:07 | 44.73321 | 13.97305 | 33100 ft | 478 kts | 127° |
| 2026-04-27 14:07 | 44.69234 | 14.04707 | 33101 ft | 477 kts | 127° |
| 2026-04-27 14:08 | 44.65169 | 14.12050 | 33097 ft | 475 kts | 127° |
| 2026-04-27 14:08 | 44.61105 | 14.19371 | 33101 ft | 474 kts | 126° |
| 2026-04-27 14:09 | 44.57051 | 14.26658 | 33100 ft | 473 kts | 126° |
| 2026-04-27 14:09 | 44.53022 | 14.33880 | 33101 ft | 472 kts | 126° |
| 2026-04-27 14:10 | 44.48965 | 14.41135 | 33101 ft | 471 kts | 126° |
| 2026-04-27 14:10 | 44.44940 | 14.48315 | 33097 ft | 471 kts | 126° |
| 2026-04-27 14:11 | 44.40884 | 14.55533 | 33100 ft | 471 kts | 126° |
| 2026-04-27 14:11 | 44.36822 | 14.62741 | 33102 ft | 471 kts | 126° |
| 2026-04-27 14:12 | 44.32747 | 14.69956 | 33106 ft | 472 kts | 126° |
| 2026-04-27 14:12 | 44.28701 | 14.77102 | 33103 ft | 473 kts | 126° |
| 2026-04-27 14:13 | 44.24616 | 14.84297 | 33097 ft | 473 kts | 127° |
| 2026-04-27 14:13 | 44.20513 | 14.91506 | 33104 ft | 474 kts | 127° |
| 2026-04-27 14:14 | 44.16405 | 14.98707 | 33104 ft | 474 kts | 127° |
| 2026-04-27 14:14 | 44.12322 | 15.05845 | 33099 ft | 474 kts | 127° |
| 2026-04-27 14:15 | 44.08209 | 15.13020 | 33100 ft | 473 kts | 127° |
| 2026-04-27 14:15 | 44.04788 | 15.18973 | 33115 ft | 473 kts | 127° |
| 2026-04-27 14:16 | 43.99998 | 15.27288 | 33112 ft | 473 kts | 127° |
| 2026-04-27 14:16 | 43.96544 | 15.33269 | 33099 ft | 474 kts | 127° |
| 2026-04-27 14:17 | 43.92412 | 15.40408 | 33108 ft | 474 kts | 127° |
| 2026-04-27 14:17 | 43.88298 | 15.47499 | 33093 ft | 475 kts | 127° |
| 2026-04-27 14:18 | 43.84139 | 15.54648 | 33096 ft | 476 kts | 127° |
| 2026-04-27 14:18 | 43.79973 | 15.61791 | 33103 ft | 476 kts | 127° |
| 2026-04-27 14:19 | 43.75803 | 15.68925 | 33087 ft | 476 kts | 127° |
| 2026-04-27 14:19 | 43.71650 | 15.76013 | 33094 ft | 476 kts | 128° |
| 2026-04-27 14:20 | 43.67476 | 15.83120 | 33088 ft | 477 kts | 128° |
| 2026-04-27 14:20 | 43.63285 | 15.90236 | 33093 ft | 477 kts | 128° |
| 2026-04-27 14:21 | 43.59088 | 15.97348 | 33096 ft | 477 kts | 128° |
| 2026-04-27 14:21 | 43.54895 | 16.04432 | 33094 ft | 478 kts | 128° |
| 2026-04-27 14:22 | 43.50704 | 16.11498 | 33101 ft | 479 kts | 128° |
| 2026-04-27 14:22 | 43.46480 | 16.18603 | 33096 ft | 479 kts | 128° |
| 2026-04-27 14:23 | 43.42246 | 16.25706 | 33102 ft | 479 kts | 128° |
| 2026-04-27 14:23 | 43.38034 | 16.32755 | 33106 ft | 479 kts | 128° |
| 2026-04-27 14:24 | 43.33788 | 16.39843 | 33091 ft | 480 kts | 129° |
| 2026-04-27 14:24 | 43.29533 | 16.46930 | 33087 ft | 480 kts | 129° |
| 2026-04-27 14:25 | 43.25268 | 16.54016 | 33092 ft | 480 kts | 129° |
| 2026-04-27 14:25 | 43.21026 | 16.61047 | 33097 ft | 480 kts | 129° |
| 2026-04-27 14:26 | 43.16755 | 16.68108 | 33096 ft | 480 kts | 129° |
| 2026-04-27 14:26 | 43.12500 | 16.75127 | 33086 ft | 481 kts | 129° |
| 2026-04-27 14:27 | 43.08227 | 16.82159 | 33098 ft | 480 kts | 129° |
| 2026-04-27 14:27 | 43.03943 | 16.89190 | 33098 ft | 481 kts | 130° |
| 2026-04-27 14:28 | 42.99655 | 16.96213 | 33102 ft | 481 kts | 130° |
| 2026-04-27 14:28 | 42.95382 | 17.03194 | 33106 ft | 481 kts | 130° |
| 2026-04-27 14:29 | 42.91081 | 17.10203 | 33096 ft | 482 kts | 130° |
| 2026-04-27 14:29 | 42.86765 | 17.17219 | 33100 ft | 482 kts | 130° |
| 2026-04-27 14:30 | 42.82452 | 17.24216 | 33096 ft | 482 kts | 130° |
| 2026-04-27 14:30 | 42.78135 | 17.31203 | 33098 ft | 482 kts | 130° |
| 2026-04-27 14:31 | 42.73825 | 17.38161 | 33097 ft | 482 kts | 131° |
| 2026-04-27 14:31 | 42.69495 | 17.45135 | 33096 ft | 482 kts | 131° |
| 2026-04-27 14:32 | 42.65158 | 17.52103 | 33095 ft | 482 kts | 131° |
| 2026-04-27 14:32 | 42.60820 | 17.59056 | 33095 ft | 483 kts | 131° |
| 2026-04-27 14:33 | 42.56504 | 17.65958 | 33095 ft | 483 kts | 131° |
| 2026-04-27 14:33 | 42.52145 | 17.72912 | 33095 ft | 483 kts | 131° |
| 2026-04-27 14:34 | 42.47788 | 17.79847 | 33096 ft | 483 kts | 131° |
| 2026-04-27 14:34 | 42.43442 | 17.86749 | 33094 ft | 483 kts | 132° |
| 2026-04-27 14:35 | 42.39067 | 17.93680 | 33095 ft | 483 kts | 132° |
| 2026-04-27 14:35 | 42.34684 | 18.00608 | 33096 ft | 483 kts | 132° |
| 2026-04-27 14:36 | 42.30332 | 18.07470 | 33093 ft | 483 kts | 132° |
| 2026-04-27 14:36 | 42.25943 | 18.14374 | 33089 ft | 483 kts | 132° |
| 2026-04-27 14:37 | 42.21552 | 18.21266 | 33083 ft | 483 kts | 132° |
| 2026-04-27 14:37 | 42.17163 | 18.28139 | 33080 ft | 484 kts | 132° |
| 2026-04-27 14:38 | 42.12762 | 18.35015 | 33077 ft | 484 kts | 133° |
| 2026-04-27 14:38 | 42.08390 | 18.41831 | 33082 ft | 484 kts | 133° |
| 2026-04-27 14:39 | 42.03978 | 18.48696 | 33082 ft | 484 kts | 133° |
| 2026-04-27 14:39 | 41.99570 | 18.55558 | 33077 ft | 484 kts | 132° |
| 2026-04-27 14:40 | 41.95198 | 18.62464 | 33079 ft | 485 kts | 132° |
| 2026-04-27 14:40 | 41.90835 | 18.69299 | 33077 ft | 484 kts | 133° |
| 2026-04-27 14:41 | 41.86374 | 18.76091 | 33077 ft | 484 kts | 133° |
| 2026-04-27 14:41 | 41.81894 | 18.82864 | 33078 ft | 484 kts | 133° |
| 2026-04-27 14:42 | 41.77422 | 18.89632 | 33073 ft | 484 kts | 133° |
| 2026-04-27 14:42 | 41.72951 | 18.96399 | 33074 ft | 484 kts | 133° |
| 2026-04-27 14:43 | 41.68504 | 19.03118 | 33069 ft | 484 kts | 133° |
| 2026-04-27 14:43 | 41.64033 | 19.09857 | 33068 ft | 484 kts | 133° |
| 2026-04-27 14:44 | 41.59562 | 19.16579 | 33067 ft | 483 kts | 133° |
| 2026-04-27 14:44 | 41.55086 | 19.23295 | 33067 ft | 483 kts | 133° |
| 2026-04-27 14:45 | 41.50637 | 19.29954 | 33064 ft | 483 kts | 133° |
| 2026-04-27 14:45 | 41.46159 | 19.36642 | 33059 ft | 483 kts | 133° |
| 2026-04-27 14:46 | 41.41676 | 19.43323 | 33056 ft | 482 kts | 133° |
| 2026-04-27 14:46 | 41.37222 | 19.49946 | 33054 ft | 482 kts | 133° |
| 2026-04-27 14:47 | 41.32731 | 19.56608 | 33054 ft | 482 kts | 133° |
| 2026-04-27 14:47 | 41.28271 | 19.63210 | 33059 ft | 482 kts | 133° |
| 2026-04-27 14:48 | 41.23776 | 19.69850 | 33058 ft | 483 kts | 134° |
| 2026-04-27 14:48 | 41.17014 | 19.79811 | 33056 ft | 483 kts | 134° |
| 2026-04-27 14:49 | 41.12525 | 19.86406 | 33063 ft | 483 kts | 133° |
| 2026-04-27 14:49 | 41.08017 | 19.93017 | 33065 ft | 482 kts | 133° |
| 2026-04-27 14:50 | 41.03527 | 19.99615 | 33075 ft | 481 kts | 133° |
| 2026-04-27 14:50 | 40.99087 | 20.06186 | 33079 ft | 481 kts | 133° |
| 2026-04-27 14:51 | 40.94616 | 20.12792 | 33087 ft | 481 kts | 133° |
| 2026-04-27 14:51 | 40.90900 | 20.18264 | 33086 ft | 480 kts | 133° |
| 2026-04-27 14:52 | 40.85669 | 20.25948 | 33098 ft | 480 kts | 133° |
| 2026-04-27 14:52 | 40.81225 | 20.32460 | 33099 ft | 480 kts | 133° |
| 2026-04-27 14:53 | 40.76743 | 20.39015 | 33100 ft | 480 kts | 133° |
| 2026-04-27 14:53 | 40.72265 | 20.45551 | 33103 ft | 480 kts | 133° |
| 2026-04-27 14:54 | 40.67782 | 20.52084 | 33118 ft | 480 kts | 132° |
| 2026-04-27 14:54 | 40.64022 | 20.59292 | 33121 ft | 481 kts | 120° |
| 2026-04-27 14:55 | 40.60725 | 20.66996 | 33106 ft | 482 kts | 120° |
| 2026-04-27 14:55 | 40.57399 | 20.74656 | 33116 ft | 482 kts | 120° |
| 2026-04-27 14:56 | 40.54036 | 20.82252 | 33116 ft | 482 kts | 121° |
| 2026-04-27 14:56 | 40.50647 | 20.89875 | 33118 ft | 483 kts | 121° |
| 2026-04-27 14:57 | 40.46868 | 20.97066 | 33114 ft | 481 kts | 134° |
| 2026-04-27 14:57 | 40.41910 | 21.02956 | 33104 ft | 480 kts | 141° |
| 2026-04-27 14:58 | 40.36830 | 21.08657 | 33104 ft | 480 kts | 141° |
| 2026-04-27 14:58 | 40.31773 | 21.14403 | 33104 ft | 481 kts | 140° |
| 2026-04-27 14:59 | 40.26727 | 21.20191 | 33108 ft | 482 kts | 140° |
| 2026-04-27 14:59 | 40.21708 | 21.25948 | 33114 ft | 483 kts | 140° |
| 2026-04-27 15:00 | 40.16639 | 21.31747 | 33109 ft | 483 kts | 140° |
| 2026-04-27 15:00 | 40.11568 | 21.37533 | 33104 ft | 483 kts | 140° |
| 2026-04-27 15:01 | 40.06531 | 21.43268 | 33106 ft | 483 kts | 141° |
| 2026-04-27 15:01 | 40.01460 | 21.49031 | 33112 ft | 483 kts | 141° |
| 2026-04-27 15:02 | 39.97248 | 21.53811 | 33113 ft | 482 kts | 141° |
| 2026-04-27 15:02 | 39.92158 | 21.59567 | 33114 ft | 482 kts | 141° |
| 2026-04-27 15:03 | 39.87084 | 21.65291 | 33109 ft | 482 kts | 141° |
| 2026-04-27 15:03 | 39.82045 | 21.70966 | 33111 ft | 482 kts | 141° |
| 2026-04-27 15:04 | 39.76959 | 21.76683 | 33115 ft | 483 kts | 141° |
| 2026-04-27 15:04 | 39.71870 | 21.82395 | 33118 ft | 483 kts | 141° |
| 2026-04-27 15:05 | 39.66802 | 21.88070 | 33109 ft | 483 kts | 141° |
| 2026-04-27 15:05 | 39.61716 | 21.93755 | 33118 ft | 482 kts | 141° |
| 2026-04-27 15:06 | 39.56625 | 21.99433 | 33111 ft | 482 kts | 141° |
| 2026-04-27 15:06 | 39.51539 | 22.05094 | 33109 ft | 482 kts | 141° |
| 2026-04-27 15:07 | 39.46483 | 22.10711 | 33112 ft | 481 kts | 141° |
| 2026-04-27 15:07 | 39.41383 | 22.16365 | 33111 ft | 481 kts | 141° |
| 2026-04-27 15:08 | 39.36316 | 22.21972 | 33119 ft | 481 kts | 141° |
| 2026-04-27 15:08 | 39.31225 | 22.27594 | 33120 ft | 481 kts | 141° |
| 2026-04-27 15:09 | 39.26129 | 22.33210 | 33131 ft | 481 kts | 141° |
| 2026-04-27 15:09 | 39.21069 | 22.38776 | 33136 ft | 481 kts | 141° |
| 2026-04-27 15:10 | 39.15966 | 22.44378 | 33135 ft | 480 kts | 141° |
| 2026-04-27 15:10 | 39.10873 | 22.49958 | 33148 ft | 480 kts | 141° |
| 2026-04-27 15:11 | 39.05818 | 22.55484 | 33149 ft | 479 kts | 141° |
| 2026-04-27 15:11 | 39.00731 | 22.61036 | 33143 ft | 479 kts | 141° |
| 2026-04-27 15:12 | 38.95644 | 22.66577 | 33148 ft | 479 kts | 141° |
| 2026-04-27 15:12 | 38.90555 | 22.72110 | 33149 ft | 478 kts | 141° |
| 2026-04-27 15:13 | 38.85501 | 22.77592 | 33146 ft | 478 kts | 141° |
| 2026-04-27 15:13 | 38.80422 | 22.83092 | 33147 ft | 477 kts | 141° |
| 2026-04-27 15:14 | 38.75350 | 22.88575 | 33147 ft | 476 kts | 141° |
| 2026-04-27 15:14 | 38.70281 | 22.94043 | 33150 ft | 476 kts | 141° |
| 2026-04-27 15:15 | 38.65208 | 22.99504 | 33136 ft | 476 kts | 141° |
| 2026-04-27 15:15 | 38.60155 | 23.04934 | 33150 ft | 477 kts | 141° |
| 2026-04-27 15:16 | 38.55013 | 23.10318 | 33136 ft | 477 kts | 143° |
| 2026-04-27 15:16 | 38.49769 | 23.15451 | 33139 ft | 476 kts | 144° |
| 2026-04-27 15:17 | 38.44500 | 23.20567 | 33132 ft | 475 kts | 144° |
| 2026-04-27 15:17 | 38.39250 | 23.25705 | 33130 ft | 475 kts | 143° |
| 2026-04-27 15:18 | 38.34011 | 23.30851 | 33123 ft | 475 kts | 143° |
| 2026-04-27 15:18 | 38.28809 | 23.35959 | 33111 ft | 475 kts | 143° |
| 2026-04-27 15:19 | 38.23565 | 23.41099 | 33094 ft | 475 kts | 143° |
| 2026-04-27 15:19 | 38.18308 | 23.46239 | 33080 ft | 475 kts | 143° |
| 2026-04-27 15:20 | 38.13085 | 23.51336 | 33075 ft | 475 kts | 143° |
| 2026-04-27 15:20 | 38.07853 | 23.56432 | 33078 ft | 475 kts | 143° |
| 2026-04-27 15:21 | 38.02592 | 23.61547 | 33075 ft | 475 kts | 143° |
| 2026-04-27 15:21 | 37.97329 | 23.66655 | 33079 ft | 476 kts | 144° |
| 2026-04-27 15:22 | 37.92085 | 23.71735 | 33131 ft | 476 kts | 144° |
| 2026-04-27 15:22 | 37.86845 | 23.76801 | 33124 ft | 475 kts | 144° |
| 2026-04-27 15:23 | 37.81585 | 23.81878 | 33123 ft | 475 kts | 144° |
| 2026-04-27 15:23 | 37.76323 | 23.86947 | 33119 ft | 475 kts | 144° |
| 2026-04-27 15:24 | 37.71066 | 23.92003 | 33123 ft | 474 kts | 144° |
| 2026-04-27 15:24 | 37.65833 | 23.97025 | 33111 ft | 475 kts | 144° |
| 2026-04-27 15:25 | 37.60558 | 24.02078 | 33102 ft | 476 kts | 144° |
| 2026-04-27 15:25 | 37.55265 | 24.07141 | 33096 ft | 477 kts | 144° |
| 2026-04-27 15:26 | 37.49975 | 24.12191 | 33091 ft | 477 kts | 144° |
| 2026-04-27 15:26 | 37.44681 | 24.17235 | 33091 ft | 477 kts | 144° |
| 2026-04-27 15:27 | 37.39417 | 24.22242 | 33094 ft | 477 kts | 144° |
| 2026-04-27 15:27 | 37.34109 | 24.27282 | 33084 ft | 477 kts | 144° |
| 2026-04-27 15:28 | 37.28806 | 24.32307 | 33082 ft | 477 kts | 144° |
| 2026-04-27 15:28 | 37.23509 | 24.37318 | 33086 ft | 477 kts | 144° |
| 2026-04-27 15:29 | 37.18231 | 24.42301 | 33082 ft | 477 kts | 144° |
| 2026-04-27 15:29 | 37.12926 | 24.47302 | 33090 ft | 478 kts | 144° |
| 2026-04-27 15:30 | 37.07606 | 24.52307 | 33064 ft | 478 kts | 144° |
| 2026-04-27 15:30 | 37.02276 | 24.57313 | 33080 ft | 478 kts | 144° |
| 2026-04-27 15:31 | 36.96976 | 24.62282 | 33066 ft | 479 kts | 144° |
| 2026-04-27 15:31 | 36.91631 | 24.67284 | 32908 ft | 482 kts | 144° |
| 2026-04-27 15:32 | 36.88946 | 24.69794 | 32640 ft | 479 kts | 144° |
| 2026-04-27 15:32 | 36.86279 | 24.72285 | 32378 ft | 478 kts | 144° |
| 2026-04-27 15:32 | 36.83605 | 24.74779 | 32129 ft | 480 kts | 144° |
| 2026-04-27 15:32 | 36.80917 | 24.77283 | 31877 ft | 481 kts | 144° |
| 2026-04-27 15:33 | 36.78235 | 24.79781 | 31623 ft | 481 kts | 144° |
| 2026-04-27 15:33 | 36.75586 | 24.82246 | 31374 ft | 481 kts | 144° |
| 2026-04-27 15:33 | 36.72906 | 24.84738 | 31130 ft | 481 kts | 144° |
| 2026-04-27 15:33 | 36.70223 | 24.87229 | 30886 ft | 481 kts | 144° |
| 2026-04-27 15:34 | 36.67539 | 24.89720 | 30634 ft | 481 kts | 144° |
| 2026-04-27 15:34 | 36.64852 | 24.92211 | 30211 ft | 479 kts | 144° |
| 2026-04-27 15:34 | 36.62171 | 24.94695 | 29272 ft | 480 kts | 144° |
| 2026-04-27 15:34 | 36.59502 | 24.97166 | 28378 ft | 474 kts | 144° |
| 2026-04-27 15:35 | 36.56892 | 24.99580 | 27814 ft | 460 kts | 144° |
| 2026-04-27 15:35 | 36.54377 | 25.01906 | 27215 ft | 452 kts | 144° |
| 2026-04-27 15:35 | 36.51867 | 25.04223 | 26619 ft | 447 kts | 144° |
| 2026-04-27 15:35 | 36.49373 | 25.06523 | 26030 ft | 443 kts | 144° |
| 2026-04-27 15:36 | 36.46902 | 25.08800 | 25458 ft | 440 kts | 145° |
| 2026-04-27 15:36 | 36.44395 | 25.10958 | 24689 ft | 436 kts | 152° |
| 2026-04-27 15:36 | 36.41653 | 25.12537 | 23526 ft | 434 kts | 162° |
| 2026-04-27 15:36 | 36.38746 | 25.13486 | 22319 ft | 430 kts | 169° |
| 2026-04-27 15:37 | 36.35832 | 25.14259 | 21299 ft | 424 kts | 169° |
| 2026-04-27 15:37 | 36.33008 | 25.14999 | 20356 ft | 417 kts | 169° |
| 2026-04-27 15:37 | 36.30180 | 25.15747 | 19411 ft | 412 kts | 169° |
| 2026-04-27 15:37 | 36.27386 | 25.16498 | 18468 ft | 407 kts | 169° |
| 2026-04-27 15:38 | 36.24629 | 25.17249 | 17449 ft | 403 kts | 168° |
| 2026-04-27 15:38 | 36.21911 | 25.17995 | 16502 ft | 397 kts | 168° |
| 2026-04-27 15:38 | 36.19234 | 25.18734 | 15587 ft | 391 kts | 168° |
| 2026-04-27 15:38 | 36.16622 | 25.19456 | 14698 ft | 386 kts | 168° |
| 2026-04-27 15:39 | 36.14037 | 25.20170 | 14122 ft | 377 kts | 168° |
| 2026-04-27 15:39 | 36.11472 | 25.20879 | 13533 ft | 376 kts | 168° |
| 2026-04-27 15:39 | 36.08918 | 25.21584 | 12946 ft | 373 kts | 168° |
| 2026-04-27 15:39 | 36.06384 | 25.22283 | 12408 ft | 370 kts | 168° |
| 2026-04-27 15:40 | 36.03882 | 25.22972 | 11870 ft | 367 kts | 168° |
| 2026-04-27 15:40 | 36.01422 | 25.23650 | 11364 ft | 364 kts | 168° |
| 2026-04-27 15:40 | 35.98966 | 25.24326 | 11145 ft | 357 kts | 168° |
| 2026-04-27 15:40 | 35.96562 | 25.24987 | 11060 ft | 351 kts | 168° |
| 2026-04-27 15:41 | 35.94207 | 25.25635 | 10726 ft | 338 kts | 168° |
| 2026-04-27 15:41 | 35.91976 | 25.26248 | 10548 ft | 318 kts | 168° |
| 2026-04-27 15:41 | 35.89875 | 25.26826 | 10404 ft | 300 kts | 168° |
| 2026-04-27 15:41 | 35.87892 | 25.27371 | 10269 ft | 285 kts | 168° |
| 2026-04-27 15:42 | 35.85989 | 25.27893 | 10164 ft | 277 kts | 168° |
| 2026-04-27 15:42 | 35.84109 | 25.28408 | 10059 ft | 276 kts | 168° |
| 2026-04-27 15:42 | 35.82230 | 25.28922 | 9748 ft | 277 kts | 168° |
| 2026-04-27 15:42 | 35.80374 | 25.29431 | 9457 ft | 270 kts | 168° |
| 2026-04-27 15:43 | 35.78587 | 25.29920 | 9175 ft | 263 kts | 168° |
| 2026-04-27 15:43 | 35.76806 | 25.30408 | 8914 ft | 263 kts | 168° |
| 2026-04-27 15:43 | 35.75004 | 25.30900 | 8655 ft | 268 kts | 168° |
| 2026-04-27 15:43 | 35.73140 | 25.31409 | 8395 ft | 280 kts | 168° |
| 2026-04-27 15:44 | 35.71221 | 25.31933 | 8092 ft | 282 kts | 168° |
| 2026-04-27 15:44 | 35.69305 | 25.32456 | 7782 ft | 281 kts | 168° |
| 2026-04-27 15:44 | 35.67396 | 25.32978 | 7488 ft | 280 kts | 168° |
| 2026-04-27 15:44 | 35.65513 | 25.33492 | 7205 ft | 279 kts | 168° |
| 2026-04-27 15:45 | 35.63625 | 25.34007 | 6919 ft | 278 kts | 168° |
| 2026-04-27 15:45 | 35.61737 | 25.34522 | 6630 ft | 277 kts | 169° |
| 2026-04-27 15:45 | 35.59850 | 25.35036 | 6269 ft | 278 kts | 169° |
| 2026-04-27 15:45 | 35.57956 | 25.35552 | 5960 ft | 278 kts | 169° |
| 2026-04-27 15:46 | 35.56072 | 25.36065 | 5658 ft | 276 kts | 168° |
| 2026-04-27 15:46 | 35.54195 | 25.36576 | 5364 ft | 275 kts | 168° |
| 2026-04-27 15:46 | 35.52349 | 25.37078 | 5078 ft | 274 kts | 168° |
| 2026-04-27 15:46 | 35.50504 | 25.37580 | 4782 ft | 267 kts | 168° |
| 2026-04-27 15:47 | 35.48710 | 25.38068 | 4490 ft | 261 kts | 168° |
| 2026-04-27 15:47 | 35.46960 | 25.38543 | 4247 ft | 254 kts | 168° |
| 2026-04-27 15:47 | 35.45265 | 25.38976 | 4136 ft | 243 kts | 175° |
| 2026-04-27 15:47 | 35.43625 | 25.38759 | 4028 ft | 236 kts | 195° |
| 2026-04-27 15:48 | 35.42019 | 25.38306 | 3917 ft | 239 kts | 194° |
| 2026-04-27 15:48 | 35.40369 | 25.37859 | 3651 ft | 243 kts | 194° |
| 2026-04-27 15:48 | 35.39275 | 25.37566 | 3517 ft | 242 kts | 194° |
| 2026-04-27 15:49 | 35.35446 | 25.36545 | 3106 ft | 241 kts | 195° |
| 2026-04-27 15:49 | 35.34396 | 25.36064 | 2993 ft | 237 kts | 216° |
| 2026-04-27 15:49 | 35.33408 | 25.34525 | 2895 ft | 233 kts | 253° |
| 2026-04-27 15:49 | 35.33071 | 25.32530 | 2526 ft | 244 kts | 269° |
| 2026-04-27 15:50 | 35.33110 | 25.30453 | 2176 ft | 244 kts | 275° |
| 2026-04-27 15:50 | 35.33255 | 25.28407 | 1806 ft | 244 kts | 276° |
| 2026-04-27 15:50 | 35.33402 | 25.26362 | 1430 ft | 237 kts | 276° |
| 2026-04-27 15:50 | 35.33536 | 25.24399 | 1095 ft | 225 kts | 275° |
| 2026-04-27 15:51 | 35.33662 | 25.22546 | 751 ft | 209 kts | 276° |
| 2026-04-27 15:51 | 35.33780 | 25.20850 | 470 ft | 191 kts | 276° |
| 2026-04-27 15:51 | 35.33888 | 25.19297 | 169 ft | 175 kts | 277° |
| 2026-04-27 15:51 | 35.33986 | 25.17934 | 92 ft | 126 kts | 275° |
| 2026-04-27 15:52 | 35.34029 | 25.17275 | 90 ft | 54 kts | 274° |
| 2026-04-27 15:52 | 35.34052 | 25.16933 | 87 ft | 26 kts | 275° |
| 2026-04-27 15:52 | 35.34038 | 25.16864 | 89 ft | 1 kts | 199° |
| 2026-04-27 15:52 | 35.34015 | 25.16875 | 89 ft | 7 kts | 139° |
| 2026-04-27 15:53 | 35.33980 | 25.16930 | 85 ft | 9 kts | 128° |
| 2026-04-27 15:53 | 35.33950 | 25.16995 | 87 ft | 9 kts | 104° |
| 2026-04-27 15:53 | 35.33942 | 25.17067 | 87 ft | 9 kts | 93° |
| 2026-04-27 15:53 | 35.33939 | 25.17137 | 86 ft | 7 kts | 94° |
| 2026-04-27 15:54 | 35.33935 | 25.17198 | 86 ft | 7 kts | 94° |
| 2026-04-27 15:54 | 35.33931 | 25.17256 | 86 ft | 7 kts | 95° |
| 2026-04-27 15:54 | 35.33927 | 25.17314 | 86 ft | 7 kts | 95° |
| 2026-04-27 15:54 | 35.33923 | 25.17371 | 88 ft | 7 kts | 98° |
| 2026-04-27 15:55 | 35.33917 | 25.17425 | 86 ft | 6 kts | 97° |
| 2026-04-27 15:55 | 35.33911 | 25.17479 | 89 ft | 6 kts | 110° |
| 2026-04-27 15:55 | 35.33875 | 25.17503 | 88 ft | 6 kts | 187° |
| 2026-04-27 15:55 | 35.33830 | 25.17496 | 86 ft | 7 kts | 186° |
| 2026-04-27 15:56 | 35.33804 | 25.17485 | 85 ft | 0 kts | 224° |
| 2026-04-27 15:56 | 35.33802 | 25.17469 | 88 ft | 4 kts | 270° |
| 2026-04-27 15:56 | 35.33804 | 25.17430 | 85 ft | 3 kts | 274° |
| 2026-04-27 15:56 | 35.33805 | 25.17416 | 87 ft | 0 kts | 274° |